Sigas Ingrid — VRCQ6 — position and weather

sailwx.info

Track history (hours):
 
Tides and Currents Weather Stations Pressure Air Temp Water Temp Dewpoint Dewpoint Depression Visibility Wind Speed Wind Dir Waves Ship Positions

Sigas Ingrid

Last reported at 2018-Feb-11 18:31 UTC. Time now 2018-Feb-22 07:16 UTC.
Position N 01°14' E 103°59'.
Warning: this ship's position is 10 days out of date.

Length 100 m; draft 5.7 m.

Type: Ship (hazmat cat A). MMSI: 477658800.

Date/timePositionNaut miles runAvg speedWind from/ knotsBaromVisibWave heightAir tempDewpointWater temp
2018-Feb-11 18:31N 01°14' E 103°59'110.3
2018-Feb-11 18:28N 01°14' E 103°58'510.5
2018-Feb-11 17:59N 01°12' E 103°54'510.0
2018-Feb-11 17:29N 01°10' E 103°49'5 9.8
2018-Feb-11 16:59N 01°07' E 103°45'510.3
2018-Feb-11 16:29N 01°04' E 103°41'510.3
2018-Feb-11 15:59N 01°04' E 103°36'510.4
2018-Feb-11 15:30N 01°08' E 103°33'612.2
2018-Feb-11 15:00N 01°11' E 103°38'4 8.2
2018-Feb-11 14:30N 01°15' E 103°39'1 0.9
2018-Feb-11 13:54N 01°16' E 103°39'0 0.0
2018-Feb-11 13:21N 01°16' E 103°39'0 0.0
2018-Feb-11 12:54N 01°16' E 103°39'0 0.0
2018-Feb-11 12:30N 01°16' E 103°39'0 0.0
2018-Feb-11 11:54N 01°16' E 103°39'0 0.0
2018-Feb-11 11:15N 01°16' E 103°39'0 0.0
2018-Feb-11 10:45N 01°16' E 103°39'0 0.0
2018-Feb-11 10:24N 01°16' E 103°39'0 0.0
2018-Feb-11 09:54N 01°16' E 103°39'0 0.0
2018-Feb-11 09:24N 01°16' E 103°39'0 0.0
2018-Feb-11 08:33N 01°16' E 103°39'0 0.0
2018-Feb-11 08:30N 01°16' E 103°39'0 0.0
2018-Feb-11 07:54N 01°16' E 103°39'0 0.0
2018-Feb-11 07:24N 01°16' E 103°39'0 0.0
2018-Feb-11 06:39N 01°16' E 103°39'0 0.0
2018-Feb-11 06:30N 01°16' E 103°39'0 0.0
2018-Feb-11 05:57N 01°16' E 103°39'0 0.0
2018-Feb-11 05:18N 01°16' E 103°39'0 0.0
2018-Feb-11 04:51N 01°16' E 103°39'0 0.0
2018-Feb-11 04:27N 01°16' E 103°39'0 0.0
2018-Feb-11 03:54N 01°16' E 103°39'0 0.0
2018-Feb-11 03:12N 01°16' E 103°39'0 0.0
2018-Feb-11 02:57N 01°16' E 103°39'0 0.0
2018-Feb-11 02:30N 01°16' E 103°39'0 0.0
2018-Feb-11 01:57N 01°16' E 103°39'0 0.0
2018-Feb-11 01:30N 01°16' E 103°39'0 0.0
2018-Feb-11 00:54N 01°16' E 103°39'0 0.0
2018-Feb-11 00:27N 01°16' E 103°39'0 0.0
2018-Feb-10 23:54N 01°16' E 103°39'0 0.0
2018-Feb-10 23:30N 01°16' E 103°39'0 0.0
2018-Feb-10 22:57N 01°16' E 103°39'0 0.0
2018-Feb-10 22:30N 01°16' E 103°39'0 0.0
2018-Feb-10 21:45N 01°16' E 103°39'0 0.0
2018-Feb-10 21:18N 01°16' E 103°39'0 0.0
2018-Feb-10 20:54N 01°16' E 103°39'0 0.0
2018-Feb-10 20:30N 01°16' E 103°39'0 0.0
2018-Feb-10 19:54N 01°16' E 103°39'0 0.0
2018-Feb-10 19:30N 01°16' E 103°39'0 0.0
2018-Feb-10 18:54N 01°16' E 103°39'0 0.0
2018-Feb-10 18:30N 01°16' E 103°39'0 0.0
2018-Feb-10 17:45N 01°16' E 103°39'0 0.0
2018-Feb-10 17:24N 01°16' E 103°39'0 0.0
2018-Feb-10 16:54N 01°16' E 103°39'0 0.0
2018-Feb-10 16:15N 01°16' E 103°39'0 0.0
2018-Feb-10 15:36N 01°16' E 103°39'0 0.0
2018-Feb-10 15:15N 01°16' E 103°39'0 0.0
2018-Feb-10 14:54N 01°16' E 103°39'0 0.0
2018-Feb-10 13:57N 01°16' E 103°39'0 0.0
2018-Feb-10 12:54N 01°16' E 103°39'0 0.0
2018-Feb-10 12:21N 01°16' E 103°39'0 0.0
2018-Feb-10 11:51N 01°16' E 103°39'0 0.0
2018-Feb-10 11:30N 01°16' E 103°39'0 0.1
2018-Feb-10 10:57N 01°16' E 103°39'2 3.7
2018-Feb-10 10:30N 01°14' E 103°39'0 0.6
2018-Feb-10 09:58N 01°14' E 103°39'0 0.0
2018-Feb-10 09:28N 01°14' E 103°39'0 0.0
2018-Feb-10 08:52N 01°14' E 103°39'0 0.0
2018-Feb-10 08:30N 01°14' E 103°39'1 1.3
2018-Feb-10 07:59N 01°13' E 103°39'4 7.8
2018-Feb-10 07:29N 01°10' E 103°42'3 7.1
2018-Feb-10 07:01N 01°09' E 103°45'4 8.4
2018-Feb-10 06:30N 01°11' E 103°49'4 8.2
2018-Feb-10 05:58N 01°13' E 103°53'510.0
2018-Feb-10 05:28N 01°15' E 103°57'  
2018-Feb-07 01:51N 01°14' E 104°02'611.5
2018-Feb-07 01:22N 01°13' E 103°57'411.5
2018-Feb-07 01:00N 01°12' E 103°53'611.2
2018-Feb-07 00:30N 01°09' E 103°48'611.6
2018-Feb-06 23:59N 01°05' E 103°43'611.4
2018-Feb-06 23:29N 01°03' E 103°38'611.6
2018-Feb-06 22:57N 01°07' E 103°33'511.0
2018-Feb-06 22:30N 01°11' E 103°36'510.7
2018-Feb-06 22:00N 01°13' E 103°41'3 5.0
2018-Feb-06 21:30N 01°16' E 103°41'0 0.0
2018-Feb-06 21:00N 01°16' E 103°41'0 0.0
2018-Feb-06 20:30N 01°16' E 103°41'0 0.0
2018-Feb-06 19:54N 01°16' E 103°41'0 0.0
2018-Feb-06 19:30N 01°16' E 103°41'0 0.0
2018-Feb-06 18:54N 01°16' E 103°41'0 0.0
2018-Feb-06 18:30N 01°16' E 103°41'0 0.0
2018-Feb-06 17:51N 01°16' E 103°41'0 0.0
2018-Feb-06 17:30N 01°16' E 103°41'0 0.0
2018-Feb-06 16:54N 01°16' E 103°41'0 0.0
2018-Feb-06 16:24N 01°16' E 103°41'0 0.0
2018-Feb-06 15:54N 01°16' E 103°41'0 0.0
2018-Feb-06 15:15N 01°16' E 103°41'0 0.0
2018-Feb-06 14:57N 01°16' E 103°41'0 0.0
2018-Feb-06 14:30N 01°16' E 103°41'0 0.0
2018-Feb-06 13:51N 01°16' E 103°41'0 0.0
2018-Feb-06 13:18N 01°16' E 103°41'0 0.0
2018-Feb-06 13:00N 01°16' E 103°41'0 0.0
2018-Feb-06 12:24N 01°16' E 103°41'0 0.0
2018-Feb-06 12:00N 01°16' E 103°41'0 0.0
2018-Feb-06 11:18N 01°16' E 103°41'0 0.0
2018-Feb-06 10:54N 01°16' E 103°41'0 0.0
2018-Feb-06 10:30N 01°16' E 103°41'0 0.0
2018-Feb-06 09:57N 01°16' E 103°41'0 0.0
2018-Feb-06 09:30N 01°16' E 103°41'0 0.0
2018-Feb-06 08:57N 01°16' E 103°41'0 0.0
2018-Feb-06 08:30N 01°16' E 103°41'0 0.0
2018-Feb-06 07:51N 01°16' E 103°41'0 0.0
2018-Feb-06 07:30N 01°16' E 103°41'0 0.0
2018-Feb-06 06:54N 01°16' E 103°41'0 0.0
2018-Feb-06 06:30N 01°16' E 103°41'0 0.0
2018-Feb-06 06:00N 01°16' E 103°41'0 0.0
2018-Feb-06 05:30N 01°16' E 103°41'0 0.0
2018-Feb-06 04:57N 01°16' E 103°41'0 0.0
2018-Feb-06 04:30N 01°16' E 103°41'0 0.0
2018-Feb-06 04:00N 01°16' E 103°41'0 0.0
2018-Feb-06 03:27N 01°16' E 103°41'0 0.0
2018-Feb-06 02:55N 01°16' E 103°41'1 1.5
2018-Feb-06 02:30N 01°15' E 103°41'3 5.8
2018-Feb-06 02:00N 01°13' E 103°40'2 2.4
2018-Feb-06 01:21N 01°14' E 103°39'0 0.0
2018-Feb-06 00:39N 01°14' E 103°39'0 0.0
2018-Feb-06 00:27N 01°14' E 103°39'0 0.0
2018-Feb-05 23:57N 01°14' E 103°39'0 0.0
2018-Feb-05 23:24N 01°14' E 103°39'0 0.0
2018-Feb-05 22:48N 01°14' E 103°39'0 0.0
2018-Feb-05 22:27N 01°14' E 103°39'0 0.0
2018-Feb-05 21:57N 01°14' E 103°39'0 0.0
2018-Feb-05 21:27N 01°14' E 103°39'0 0.1
2018-Feb-05 20:54N 01°14' E 103°39'0 0.0
2018-Feb-05 20:30N 01°14' E 103°39'0 0.0
2018-Feb-05 19:54N 01°14' E 103°39'0 0.0
2018-Feb-05 19:21N 01°14' E 103°39'0 0.0
2018-Feb-05 18:45N 01°14' E 103°39'0 0.0
2018-Feb-05 17:51N 01°14' E 103°39'0 0.0
2018-Feb-05 17:24N 01°14' E 103°39'0 0.0
2018-Feb-05 16:57N 01°14' E 103°39'0 0.1
2018-Feb-05 15:57N 01°14' E 103°39'0 0.0
2018-Feb-05 15:24N 01°14' E 103°39'0 0.0
2018-Feb-05 14:36N 01°14' E 103°39'0 0.0
2018-Feb-05 14:30N 01°14' E 103°39'0 0.0
2018-Feb-05 13:51N 01°14' E 103°39'0 0.0
2018-Feb-05 13:12N 01°14' E 103°39'0 0.0
2018-Feb-05 12:51N 01°14' E 103°39'0 0.0
2018-Feb-05 12:30N 01°14' E 103°39'0 0.0
2018-Feb-05 11:51N 01°14' E 103°39'0 0.0
2018-Feb-05 11:21N 01°14' E 103°39'0 0.0
2018-Feb-05 10:57N 01°14' E 103°39'0 0.0
2018-Feb-05 10:30N 01°14' E 103°39'0 0.0
2018-Feb-05 09:36N 01°14' E 103°39'0 0.0
2018-Feb-05 09:21N 01°14' E 103°39'0 0.0
2018-Feb-05 08:57N 01°14' E 103°39'0 0.0
2018-Feb-05 08:30N 01°14' E 103°39'0 0.0
2018-Feb-05 07:39N 01°14' E 103°39'0 0.0
2018-Feb-05 07:27N 01°14' E 103°39'0 0.0
2018-Feb-05 06:57N 01°14' E 103°39'0 0.0
2018-Feb-05 06:30N 01°14' E 103°39'0 0.0
2018-Feb-05 05:27N 01°14' E 103°39'0 0.0
2018-Feb-05 04:57N 01°14' E 103°39'0 0.0
2018-Feb-05 04:27N 01°14' E 103°39'0 0.0
2018-Feb-05 03:57N 01°14' E 103°39'0 0.0
2018-Feb-05 03:30N 01°14' E 103°39'0 0.0
2018-Feb-05 02:51N 01°14' E 103°39'0 0.0
2018-Feb-05 02:30N 01°14' E 103°39'0 0.0
2018-Feb-05 01:57N 01°14' E 103°39'0 0.0
2018-Feb-05 01:30N 01°14' E 103°39'0 0.0
2018-Feb-05 00:57N 01°14' E 103°39'0 0.0
2018-Feb-05 00:30N 01°14' E 103°39'0 0.0
2018-Feb-04 23:57N 01°14' E 103°39'0 0.0
2018-Feb-04 23:21N 01°14' E 103°39'0 0.0
2018-Feb-04 22:45N 01°14' E 103°39'0 0.0
2018-Feb-04 22:21N 01°14' E 103°39'0 0.0
2018-Feb-04 21:54N 01°14' E 103°39'0 0.0
2018-Feb-04 21:30N 01°14' E 103°39'0 0.0
2018-Feb-04 20:57N 01°14' E 103°39'0 0.0
2018-Feb-04 19:48N 01°14' E 103°39'0 0.0
2018-Feb-04 18:45N 01°14' E 103°39'0 0.0
2018-Feb-04 18:18N 01°14' E 103°39'0 0.0
2018-Feb-04 17:12N 01°14' E 103°39'0 0.0
2018-Feb-04 15:24N 01°14' E 103°39'0 0.0
2018-Feb-04 14:45N 01°14' E 103°39'0 0.0
2018-Feb-04 14:27N 01°14' E 103°39'0 0.0
2018-Feb-04 13:51N 01°14' E 103°39'0 0.0
2018-Feb-04 13:24N 01°14' E 103°39'0 0.0
2018-Feb-04 11:03N 01°14' E 103°39'0 0.0
2018-Feb-04 09:45N 01°14' E 103°39'0 0.0
2018-Feb-04 08:54N 01°14' E 103°39'0 0.0
2018-Feb-04 08:30N 01°14' E 103°39'0 0.0
2018-Feb-04 07:48N 01°14' E 103°39'0 0.0
2018-Feb-04 07:06N 01°14' E 103°39'0 0.0
2018-Feb-04 06:54N 01°14' E 103°39'0 0.1
2018-Feb-04 06:27N 01°14' E 103°39'0 0.1
2018-Feb-04 05:57N 01°14' E 103°39'0 0.0
2018-Feb-04 05:21N 01°14' E 103°39'0 0.0
2018-Feb-04 04:57N 01°14' E 103°39'0 0.0
2018-Feb-04 04:27N 01°14' E 103°39'0 0.0
2018-Feb-04 03:57N 01°14' E 103°39'0 0.0
2018-Feb-04 03:30N 01°14' E 103°39'0 0.0
2018-Feb-04 02:48N 01°14' E 103°39'0 0.0
2018-Feb-04 02:27N 01°14' E 103°39'0 0.0
2018-Feb-04 01:57N 01°14' E 103°39'0 0.0
2018-Feb-04 01:30N 01°14' E 103°39'0 0.0
2018-Feb-04 00:57N 01°14' E 103°39'0 0.0
2018-Feb-04 00:30N 01°14' E 103°39'0 0.0
2018-Feb-03 23:18N 01°14' E 103°39'0 0.0
2018-Feb-03 22:54N 01°14' E 103°39'0 0.0
2018-Feb-03 22:27N 01°14' E 103°39'0 0.0
2018-Feb-03 21:54N 01°14' E 103°39'0 0.0
2018-Feb-03 21:27N 01°14' E 103°39'0 0.0
2018-Feb-03 20:57N 01°14' E 103°39'0 0.0
2018-Feb-03 20:30N 01°14' E 103°39'0 0.0
2018-Feb-03 19:54N 01°14' E 103°39'0 0.0
2018-Feb-03 17:39N 01°14' E 103°39'0 0.0
2018-Feb-03 17:30N 01°14' E 103°39'0 0.0
2018-Feb-03 16:57N 01°14' E 103°39'0 0.0
2018-Feb-03 15:48N 01°14' E 103°39'0 0.0
2018-Feb-03 15:30N 01°14' E 103°39'0 0.0
2018-Feb-03 14:51N 01°14' E 103°39'0 0.0
2018-Feb-03 14:24N 01°14' E 103°39'0 0.1
2018-Feb-03 13:59N 01°14' E 103°39'0 0.1
2018-Feb-03 13:29N 01°14' E 103°39'0 0.0
2018-Feb-03 12:59N 01°14' E 103°39'0 0.0
2018-Feb-03 12:30N 01°14' E 103°39'0 0.0
2018-Feb-03 12:00N 01°14' E 103°39'0 0.0
2018-Feb-03 11:30N 01°14' E 103°39'0 0.0
2018-Feb-03 11:00N 01°14' E 103°39'0 0.0
2018-Feb-03 10:30N 01°14' E 103°39'0 0.0
2018-Feb-03 10:00N 01°14' E 103°39'0 0.0
2018-Feb-03 09:30N 01°14' E 103°39'0 0.0
2018-Feb-03 09:00N 01°14' E 103°39'0 0.0
2018-Feb-03 08:30N 01°14' E 103°39'0 0.0
2018-Feb-03 08:00N 01°14' E 103°39'0 0.0
2018-Feb-03 06:31N 01°14' E 103°39'0 0.0
2018-Feb-03 06:00N 01°14' E 103°39'0 0.0
2018-Feb-03 05:29N 01°14' E 103°39'0 0.1
2018-Feb-03 05:01N 01°14' E 103°39'0 0.1
2018-Feb-03 04:00N 01°14' E 103°39'0 0.0
2018-Feb-03 03:30N 01°14' E 103°39'0 0.0
2018-Feb-03 02:01N 01°14' E 103°39'0 0.5
2018-Feb-03 01:30N 01°14' E 103°39'3 5.3
2018-Feb-03 01:00N 01°11' E 103°39'3 6.0
2018-Feb-03 00:29N 01°09' E 103°42'3 6.1
2018-Feb-03 00:00N 01°09' E 103°45'4 8.2
2018-Feb-02 23:31N 01°11' E 103°48'3 6.4
2018-Feb-02 23:01N 01°12' E 103°51'4 8.2
2018-Feb-02 22:31N 01°14' E 103°55'4 8.4
2018-Feb-02 22:00N 01°15' E 103°59'  
Track history (hours):
 
Tides and Currents Weather Stations Pressure Air Temp Water Temp Dewpoint Dewpoint Depression Visibility Wind Speed Wind Dir Waves Ship Positions

Sigas Ingrid

Last reported at 2018-Feb-11 18:31 UTC. Time now 2018-Feb-22 07:16 UTC.
Position N 01°14' E 103°59'.
Warning: this ship's position is 10 days out of date.

Length 100 m; draft 5.7 m.

Type: Ship (hazmat cat A). MMSI: 477658800.

Date/timePositionNaut miles runAvg speedWind from/ knotsBaromVisibWave heightAir tempDewpointWater temp
2018-Feb-11 18:31N 01°14' E 103°59'110.3
2018-Feb-11 18:28N 01°14' E 103°58'510.5
2018-Feb-11 17:59N 01°12' E 103°54'510.0
2018-Feb-11 17:29N 01°10' E 103°49'5 9.8
2018-Feb-11 16:59N 01°07' E 103°45'510.3
2018-Feb-11 16:29N 01°04' E 103°41'510.3
2018-Feb-11 15:59N 01°04' E 103°36'510.4
2018-Feb-11 15:30N 01°08' E 103°33'612.2
2018-Feb-11 15:00N 01°11' E 103°38'4 8.2
2018-Feb-11 14:30N 01°15' E 103°39'1 0.9
2018-Feb-11 13:54N 01°16' E 103°39'0 0.0
2018-Feb-11 13:21N 01°16' E 103°39'0 0.0
2018-Feb-11 12:54N 01°16' E 103°39'0 0.0
2018-Feb-11 12:30N 01°16' E 103°39'0 0.0
2018-Feb-11 11:54N 01°16' E 103°39'0 0.0
2018-Feb-11 11:15N 01°16' E 103°39'0 0.0
2018-Feb-11 10:45N 01°16' E 103°39'0 0.0
2018-Feb-11 10:24N 01°16' E 103°39'0 0.0
2018-Feb-11 09:54N 01°16' E 103°39'0 0.0
2018-Feb-11 09:24N 01°16' E 103°39'0 0.0
2018-Feb-11 08:33N 01°16' E 103°39'0 0.0
2018-Feb-11 08:30N 01°16' E 103°39'0 0.0
2018-Feb-11 07:54N 01°16' E 103°39'0 0.0
2018-Feb-11 07:24N 01°16' E 103°39'0 0.0
2018-Feb-11 06:39N 01°16' E 103°39'0 0.0
2018-Feb-11 06:30N 01°16' E 103°39'0 0.0
2018-Feb-11 05:57N 01°16' E 103°39'0 0.0
2018-Feb-11 05:18N 01°16' E 103°39'0 0.0
2018-Feb-11 04:51N 01°16' E 103°39'0 0.0
2018-Feb-11 04:27N 01°16' E 103°39'0 0.0
2018-Feb-11 03:54N 01°16' E 103°39'0 0.0
2018-Feb-11 03:12N 01°16' E 103°39'0 0.0
2018-Feb-11 02:57N 01°16' E 103°39'0 0.0
2018-Feb-11 02:30N 01°16' E 103°39'0 0.0
2018-Feb-11 01:57N 01°16' E 103°39'0 0.0
2018-Feb-11 01:30N 01°16' E 103°39'0 0.0
2018-Feb-11 00:54N 01°16' E 103°39'0 0.0
2018-Feb-11 00:27N 01°16' E 103°39'0 0.0
2018-Feb-10 23:54N 01°16' E 103°39'0 0.0
2018-Feb-10 23:30N 01°16' E 103°39'0 0.0
2018-Feb-10 22:57N 01°16' E 103°39'0 0.0
2018-Feb-10 22:30N 01°16' E 103°39'0 0.0
2018-Feb-10 21:45N 01°16' E 103°39'0 0.0
2018-Feb-10 21:18N 01°16' E 103°39'0 0.0
2018-Feb-10 20:54N 01°16' E 103°39'0 0.0
2018-Feb-10 20:30N 01°16' E 103°39'0 0.0
2018-Feb-10 19:54N 01°16' E 103°39'0 0.0
2018-Feb-10 19:30N 01°16' E 103°39'0 0.0
2018-Feb-10 18:54N 01°16' E 103°39'0 0.0
2018-Feb-10 18:30N 01°16' E 103°39'0 0.0
2018-Feb-10 17:45N 01°16' E 103°39'0 0.0
2018-Feb-10 17:24N 01°16' E 103°39'0 0.0
2018-Feb-10 16:54N 01°16' E 103°39'0 0.0
2018-Feb-10 16:15N 01°16' E 103°39'0 0.0
2018-Feb-10 15:36N 01°16' E 103°39'0 0.0
2018-Feb-10 15:15N 01°16' E 103°39'0 0.0
2018-Feb-10 14:54N 01°16' E 103°39'0 0.0
2018-Feb-10 13:57N 01°16' E 103°39'0 0.0
2018-Feb-10 12:54N 01°16' E 103°39'0 0.0
2018-Feb-10 12:21N 01°16' E 103°39'0 0.0
2018-Feb-10 11:51N 01°16' E 103°39'0 0.0
2018-Feb-10 11:30N 01°16' E 103°39'0 0.1
2018-Feb-10 10:57N 01°16' E 103°39'2 3.7
2018-Feb-10 10:30N 01°14' E 103°39'0 0.6
2018-Feb-10 09:58N 01°14' E 103°39'0 0.0
2018-Feb-10 09:28N 01°14' E 103°39'0 0.0
2018-Feb-10 08:52N 01°14' E 103°39'0 0.0
2018-Feb-10 08:30N 01°14' E 103°39'1 1.3
2018-Feb-10 07:59N 01°13' E 103°39'4 7.8
2018-Feb-10 07:29N 01°10' E 103°42'3 7.1
2018-Feb-10 07:01N 01°09' E 103°45'4 8.4
2018-Feb-10 06:30N 01°11' E 103°49'4 8.2
2018-Feb-10 05:58N 01°13' E 103°53'510.0
2018-Feb-10 05:28N 01°15' E 103°57'  
2018-Feb-07 01:51N 01°14' E 104°02'611.5
2018-Feb-07 01:22N 01°13' E 103°57'411.5
2018-Feb-07 01:00N 01°12' E 103°53'611.2
2018-Feb-07 00:30N 01°09' E 103°48'611.6
2018-Feb-06 23:59N 01°05' E 103°43'611.4
2018-Feb-06 23:29N 01°03' E 103°38'611.6
2018-Feb-06 22:57N 01°07' E 103°33'511.0
2018-Feb-06 22:30N 01°11' E 103°36'510.7
2018-Feb-06 22:00N 01°13' E 103°41'3 5.0
2018-Feb-06 21:30N 01°16' E 103°41'0 0.0
2018-Feb-06 21:00N 01°16' E 103°41'0 0.0
2018-Feb-06 20:30N 01°16' E 103°41'0 0.0
2018-Feb-06 19:54N 01°16' E 103°41'0 0.0
2018-Feb-06 19:30N 01°16' E 103°41'0 0.0
2018-Feb-06 18:54N 01°16' E 103°41'0 0.0
2018-Feb-06 18:30N 01°16' E 103°41'0 0.0
2018-Feb-06 17:51N 01°16' E 103°41'0 0.0
2018-Feb-06 17:30N 01°16' E 103°41'0 0.0
2018-Feb-06 16:54N 01°16' E 103°41'0 0.0
2018-Feb-06 16:24N 01°16' E 103°41'0 0.0
2018-Feb-06 15:54N 01°16' E 103°41'0 0.0
2018-Feb-06 15:15N 01°16' E 103°41'0 0.0
2018-Feb-06 14:57N 01°16' E 103°41'0 0.0
2018-Feb-06 14:30N 01°16' E 103°41'0 0.0
2018-Feb-06 13:51N 01°16' E 103°41'0 0.0
2018-Feb-06 13:18N 01°16' E 103°41'0 0.0
2018-Feb-06 13:00N 01°16' E 103°41'0 0.0
2018-Feb-06 12:24N 01°16' E 103°41'0 0.0
2018-Feb-06 12:00N 01°16' E 103°41'0 0.0
2018-Feb-06 11:18N 01°16' E 103°41'0 0.0
2018-Feb-06 10:54N 01°16' E 103°41'0 0.0
2018-Feb-06 10:30N 01°16' E 103°41'0 0.0
2018-Feb-06 09:57N 01°16' E 103°41'0 0.0
2018-Feb-06 09:30N 01°16' E 103°41'0 0.0
2018-Feb-06 08:57N 01°16' E 103°41'0 0.0
2018-Feb-06 08:30N 01°16' E 103°41'0 0.0
2018-Feb-06 07:51N 01°16' E 103°41'0 0.0
2018-Feb-06 07:30N 01°16' E 103°41'0 0.0
2018-Feb-06 06:54N 01°16' E 103°41'0 0.0
2018-Feb-06 06:30N 01°16' E 103°41'0 0.0
2018-Feb-06 06:00N 01°16' E 103°41'0 0.0
2018-Feb-06 05:30N 01°16' E 103°41'0 0.0
2018-Feb-06 04:57N 01°16' E 103°41'0 0.0
2018-Feb-06 04:30N 01°16' E 103°41'0 0.0
2018-Feb-06 04:00N 01°16' E 103°41'0 0.0
2018-Feb-06 03:27N 01°16' E 103°41'0 0.0
2018-Feb-06 02:55N 01°16' E 103°41'1 1.5
2018-Feb-06 02:30N 01°15' E 103°41'3 5.8
2018-Feb-06 02:00N 01°13' E 103°40'2 2.4
2018-Feb-06 01:21N 01°14' E 103°39'0 0.0
2018-Feb-06 00:39N 01°14' E 103°39'0 0.0
2018-Feb-06 00:27N 01°14' E 103°39'0 0.0
2018-Feb-05 23:57N 01°14' E 103°39'0 0.0
2018-Feb-05 23:24N 01°14' E 103°39'0 0.0
2018-Feb-05 22:48N 01°14' E 103°39'0 0.0
2018-Feb-05 22:27N 01°14' E 103°39'0 0.0
2018-Feb-05 21:57N 01°14' E 103°39'0 0.0
2018-Feb-05 21:27N 01°14' E 103°39'0 0.1
2018-Feb-05 20:54N 01°14' E 103°39'0 0.0
2018-Feb-05 20:30N 01°14' E 103°39'0 0.0
2018-Feb-05 19:54N 01°14' E 103°39'0 0.0
2018-Feb-05 19:21N 01°14' E 103°39'0 0.0
2018-Feb-05 18:45N 01°14' E 103°39'0 0.0
2018-Feb-05 17:51N 01°14' E 103°39'0 0.0
2018-Feb-05 17:24N 01°14' E 103°39'0 0.0
2018-Feb-05 16:57N 01°14' E 103°39'0 0.1
2018-Feb-05 15:57N 01°14' E 103°39'0 0.0
2018-Feb-05 15:24N 01°14' E 103°39'0 0.0
2018-Feb-05 14:36N 01°14' E 103°39'0 0.0
2018-Feb-05 14:30N 01°14' E 103°39'0 0.0
2018-Feb-05 13:51N 01°14' E 103°39'0 0.0
2018-Feb-05 13:12N 01°14' E 103°39'0 0.0
2018-Feb-05 12:51N 01°14' E 103°39'0 0.0
2018-Feb-05 12:30N 01°14' E 103°39'0 0.0
2018-Feb-05 11:51N 01°14' E 103°39'0 0.0
2018-Feb-05 11:21N 01°14' E 103°39'0 0.0
2018-Feb-05 10:57N 01°14' E 103°39'0 0.0
2018-Feb-05 10:30N 01°14' E 103°39'0 0.0
2018-Feb-05 09:36N 01°14' E 103°39'0 0.0
2018-Feb-05 09:21N 01°14' E 103°39'0 0.0
2018-Feb-05 08:57N 01°14' E 103°39'0 0.0
2018-Feb-05 08:30N 01°14' E 103°39'0 0.0
2018-Feb-05 07:39N 01°14' E 103°39'0 0.0
2018-Feb-05 07:27N 01°14' E 103°39'0 0.0
2018-Feb-05 06:57N 01°14' E 103°39'0 0.0
2018-Feb-05 06:30N 01°14' E 103°39'0 0.0
2018-Feb-05 05:27N 01°14' E 103°39'0 0.0
2018-Feb-05 04:57N 01°14' E 103°39'0 0.0
2018-Feb-05 04:27N 01°14' E 103°39'0 0.0
2018-Feb-05 03:57N 01°14' E 103°39'0 0.0
2018-Feb-05 03:30N 01°14' E 103°39'0 0.0
2018-Feb-05 02:51N 01°14' E 103°39'0 0.0
2018-Feb-05 02:30N 01°14' E 103°39'0 0.0
2018-Feb-05 01:57N 01°14' E 103°39'0 0.0
2018-Feb-05 01:30N 01°14' E 103°39'0 0.0
2018-Feb-05 00:57N 01°14' E 103°39'0 0.0
2018-Feb-05 00:30N 01°14' E 103°39'0 0.0
2018-Feb-04 23:57N 01°14' E 103°39'0 0.0
2018-Feb-04 23:21N 01°14' E 103°39'0 0.0
2018-Feb-04 22:45N 01°14' E 103°39'0 0.0
2018-Feb-04 22:21N 01°14' E 103°39'0 0.0
2018-Feb-04 21:54N 01°14' E 103°39'0 0.0
2018-Feb-04 21:30N 01°14' E 103°39'0 0.0
2018-Feb-04 20:57N 01°14' E 103°39'0 0.0
2018-Feb-04 19:48N 01°14' E 103°39'0 0.0
2018-Feb-04 18:45N 01°14' E 103°39'0 0.0
2018-Feb-04 18:18N 01°14' E 103°39'0 0.0
2018-Feb-04 17:12N 01°14' E 103°39'0 0.0
2018-Feb-04 15:24N 01°14' E 103°39'0 0.0
2018-Feb-04 14:45N 01°14' E 103°39'0 0.0
2018-Feb-04 14:27N 01°14' E 103°39'0 0.0
2018-Feb-04 13:51N 01°14' E 103°39'0 0.0
2018-Feb-04 13:24N 01°14' E 103°39'0 0.0
2018-Feb-04 11:03N 01°14' E 103°39'0 0.0
2018-Feb-04 09:45N 01°14' E 103°39'0 0.0
2018-Feb-04 08:54N 01°14' E 103°39'0 0.0
2018-Feb-04 08:30N 01°14' E 103°39'0 0.0
2018-Feb-04 07:48N 01°14' E 103°39'0 0.0
2018-Feb-04 07:06N 01°14' E 103°39'0 0.0
2018-Feb-04 06:54N 01°14' E 103°39'0 0.1
2018-Feb-04 06:27N 01°14' E 103°39'0 0.1
2018-Feb-04 05:57N 01°14' E 103°39'0 0.0
2018-Feb-04 05:21N 01°14' E 103°39'0 0.0
2018-Feb-04 04:57N 01°14' E 103°39'0 0.0
2018-Feb-04 04:27N 01°14' E 103°39'0 0.0
2018-Feb-04 03:57N 01°14' E 103°39'0 0.0
2018-Feb-04 03:30N 01°14' E 103°39'0 0.0
2018-Feb-04 02:48N 01°14' E 103°39'0 0.0
2018-Feb-04 02:27N 01°14' E 103°39'0 0.0
2018-Feb-04 01:57N 01°14' E 103°39'0 0.0
2018-Feb-04 01:30N 01°14' E 103°39'0 0.0
2018-Feb-04 00:57N 01°14' E 103°39'0 0.0
2018-Feb-04 00:30N 01°14' E 103°39'0 0.0
2018-Feb-03 23:18N 01°14' E 103°39'0 0.0
2018-Feb-03 22:54N 01°14' E 103°39'0 0.0
2018-Feb-03 22:27N 01°14' E 103°39'0 0.0
2018-Feb-03 21:54N 01°14' E 103°39'0 0.0
2018-Feb-03 21:27N 01°14' E 103°39'0 0.0
2018-Feb-03 20:57N 01°14' E 103°39'0 0.0
2018-Feb-03 20:30N 01°14' E 103°39'0 0.0
2018-Feb-03 19:54N 01°14' E 103°39'0 0.0
2018-Feb-03 17:39N 01°14' E 103°39'0 0.0
2018-Feb-03 17:30N 01°14' E 103°39'0 0.0
2018-Feb-03 16:57N 01°14' E 103°39'0 0.0
2018-Feb-03 15:48N 01°14' E 103°39'0 0.0
2018-Feb-03 15:30N 01°14' E 103°39'0 0.0
2018-Feb-03 14:51N 01°14' E 103°39'0 0.0
2018-Feb-03 14:24N 01°14' E 103°39'0 0.1
2018-Feb-03 13:59N 01°14' E 103°39'0 0.1
2018-Feb-03 13:29N 01°14' E 103°39'0 0.0
2018-Feb-03 12:59N 01°14' E 103°39'0 0.0
2018-Feb-03 12:30N 01°14' E 103°39'0 0.0
2018-Feb-03 12:00N 01°14' E 103°39'0 0.0
2018-Feb-03 11:30N 01°14' E 103°39'0 0.0
2018-Feb-03 11:00N 01°14' E 103°39'0 0.0
2018-Feb-03 10:30N 01°14' E 103°39'0 0.0
2018-Feb-03 10:00N 01°14' E 103°39'0 0.0
2018-Feb-03 09:30N 01°14' E 103°39'0 0.0
2018-Feb-03 09:00N 01°14' E 103°39'0 0.0
2018-Feb-03 08:30N 01°14' E 103°39'0 0.0
2018-Feb-03 08:00N 01°14' E 103°39'0 0.0
2018-Feb-03 06:31N 01°14' E 103°39'0 0.0
2018-Feb-03 06:00N 01°14' E 103°39'0 0.0
2018-Feb-03 05:29N 01°14' E 103°39'0 0.1
2018-Feb-03 05:01N 01°14' E 103°39'0 0.1
2018-Feb-03 04:00N 01°14' E 103°39'0 0.0
2018-Feb-03 03:30N 01°14' E 103°39'0 0.0
2018-Feb-03 02:01N 01°14' E 103°39'0 0.5
2018-Feb-03 01:30N 01°14' E 103°39'3 5.3
2018-Feb-03 01:00N 01°11' E 103°39'3 6.0
2018-Feb-03 00:29N 01°09' E 103°42'3 6.1
2018-Feb-03 00:00N 01°09' E 103°45'4 8.2
2018-Feb-02 23:31N 01°11' E 103°48'3 6.4
2018-Feb-02 23:01N 01°12' E 103°51'4 8.2
2018-Feb-02 22:31N 01°14' E 103°55'4 8.4
2018-Feb-02 22:00N 01°15' E 103°59'  

Dump ship's entire track history